Time;durP1;ratioP1;P1;durP2;ratioP2;P2;SDS_P1;SDS_P2;PMS_P1;PMS_P2;Temp;Humidity;BMP_temperature;BMP_pressure;BME280_temperature;BME280_humidity;BME280_pressure;Samples;Min_cycle;Max_cycle;Signal;HPM_P1;HPM_P2
2023/12/15 00:01:15;;;;;;;21.92;20.73;;;;;;;;;;5125348;27;20043;-73
2023/12/15 00:03:46;;;;;;;19.33;18.17;;;;;;;;;;5125910;27;20070;-75
2023/12/15 00:06:16;;;;;;;18.90;17.75;;;;;;;;;;5126050;27;20039;-75
2023/12/15 00:08:46;;;;;;;10.48;9.73;;;;;;;;;;5123782;27;20140;-73
2023/12/15 00:11:17;;;;;;;19.95;18.58;;;;;;;;;;5125340;27;20452;-74
2023/12/15 00:13:48;;;;;;;25.42;24.00;;;;;;;;;;5125979;27;20108;-75
2023/12/15 00:16:18;;;;;;;33.58;31.58;;;;;;;;;;5125723;27;20047;-74
2023/12/15 00:18:48;;;;;;;33.90;31.50;;;;;;;;;;5125702;27;20039;-75
2023/12/15 00:21:20;;;;;;;33.95;32.20;;;;;;;;;;5124357;27;20412;-74
2023/12/15 00:23:51;;;;;;;19.35;18.10;;;;;;;;;;5125805;27;20046;-75
2023/12/15 00:26:22;;;;;;;16.90;15.90;;;;;;;;;;5124552;27;20046;-74
2023/12/15 00:28:52;;;;;;;31.35;29.40;;;;;;;;;;5125362;27;20501;-77
2023/12/15 00:31:23;;;;;;;23.65;22.30;;;;;;;;;;5124726;27;20031;-74
2023/12/15 00:33:54;;;;;;;30.65;28.58;;;;;;;;;;5125468;27;21046;-74
2023/12/15 00:36:25;;;;;;;19.95;18.55;;;;;;;;;;5124708;27;20046;-75
2023/12/15 00:38:54;;;;;;;32.00;30.20;;;;;;;;;;5124587;27;20047;-75
2023/12/15 00:41:25;;;;;;;25.20;23.80;;;;;;;;;;5125314;27;20043;-76
2023/12/15 00:43:56;;;;;;;31.50;29.65;;;;;;;;;;5125135;27;20055;-75
2023/12/15 00:46:27;;;;;;;25.67;24.08;;;;;;;;;;5125404;27;20050;-74
2023/12/15 01:01:48;;;;;;;29.20;27.42;;;;;;;;;;5079469;28;21293;-72
2023/12/15 01:04:20;;;;;;;29.92;28.17;;;;;;;;;;5079502;28;20054;-72
2023/12/15 01:06:50;;;;;;;33.42;31.52;;;;;;;;;;5079624;28;20048;-72
2023/12/15 01:09:21;;;;;;;21.75;20.50;;;;;;;;;;5078922;28;20047;-71
2023/12/15 01:11:51;;;;;;;21.67;20.45;;;;;;;;;;5079725;28;20048;-72
2023/12/15 01:14:22;;;;;;;20.23;18.85;;;;;;;;;;5078965;28;20052;-72
2023/12/15 01:16:52;;;;;;;27.85;26.23;;;;;;;;;;5079368;28;20040;-72
2023/12/15 01:19:24;;;;;;;14.50;13.65;;;;;;;;;;5078727;28;20044;-72
2023/12/15 01:21:55;;;;;;;17.27;16.27;;;;;;;;;;5078865;28;20051;-72
2023/12/15 01:24:26;;;;;;;15.48;14.57;;;;;;;;;;5079149;28;20521;-72
2023/12/15 01:26:55;;;;;;;19.58;18.48;;;;;;;;;;5079375;28;20525;-72
2023/12/15 01:29:25;;;;;;;17.45;16.38;;;;;;;;;;5078614;28;20056;-74
2023/12/15 01:31:55;;;;;;;21.23;19.70;;;;;;;;;;5078739;28;20059;-74
2023/12/15 01:34:26;;;;;;;22.73;21.30;;;;;;;;;;5079124;28;20075;-77
2023/12/15 01:36:56;;;;;;;18.45;17.40;;;;;;;;;;5078795;28;20403;-75
2023/12/15 01:39:26;;;;;;;20.35;18.88;;;;;;;;;;5078493;28;20111;-74
2023/12/15 01:41:56;;;;;;;25.52;24.00;;;;;;;;;;5078364;28;20044;-73
2023/12/15 01:44:27;;;;;;;24.92;23.27;;;;;;;;;;5080239;28;20049;-74
2023/12/15 01:46:59;;;;;;;23.20;21.92;;;;;;;;;;5079146;28;20047;-74
2023/12/15 01:49:30;;;;;;;20.88;19.67;;;;;;;;;;5078479;28;20052;-74
2023/12/15 01:52:00;;;;;;;24.83;23.27;;;;;;;;;;5078396;28;20501;-73
2023/12/15 01:54:30;;;;;;;27.27;25.40;;;;;;;;;;5078290;28;20566;-73
2023/12/15 01:57:03;;;;;;;20.80;19.52;;;;;;;;;;5076791;28;20055;-73
2023/12/15 01:59:49;;;;;;;17.40;16.35;;;;;;;;;;5077940;28;20049;-73
2023/12/15 02:02:19;;;;;;;18.98;17.73;;;;;;;;;;5067554;28;20048;-73
2023/12/15 02:04:49;;;;;;;20.23;19.05;;;;;;;;;;5064703;28;20044;-74
2023/12/15 02:07:22;;;;;;;22.13;20.83;;;;;;;;;;5064700;28;20044;-73
2023/12/15 02:09:54;;;;;;;18.95;17.88;;;;;;;;;;5064896;28;20055;-77
2023/12/15 02:12:25;;;;;;;21.13;19.60;;;;;;;;;;5065125;28;20052;-73
2023/12/15 02:14:56;;;;;;;19.23;17.98;;;;;;;;;;5064861;28;20048;-74
2023/12/15 02:17:29;;;;;;;17.90;16.55;;;;;;;;;;5065136;28;20067;-74
2023/12/15 02:20:02;;;;;;;18.40;17.27;;;;;;;;;;5064217;28;20056;-73
2023/12/15 02:22:33;;;;;;;18.45;17.35;;;;;;;;;;5064493;28;20041;-74
2023/12/15 02:25:03;;;;;;;20.45;19.33;;;;;;;;;;5064226;28;20053;-73
2023/12/15 02:27:33;;;;;;;20.05;18.75;;;;;;;;;;5064687;28;20519;-73
2023/12/15 02:30:05;;;;;;;19.65;18.02;;;;;;;;;;5064119;28;20048;-74
2023/12/15 02:32:35;;;;;;;19.88;18.65;;;;;;;;;;5064205;28;20059;-74
2023/12/15 02:35:06;;;;;;;16.55;15.55;;;;;;;;;;5063549;28;20502;-74
2023/12/15 02:37:36;;;;;;;17.75;16.75;;;;;;;;;;5063969;28;20040;-74
2023/12/15 02:40:08;;;;;;;21.67;20.38;;;;;;;;;;5064018;28;20411;-73
2023/12/15 02:42:39;;;;;;;17.92;16.92;;;;;;;;;;5064522;28;20044;-73
2023/12/15 02:45:09;;;;;;;17.42;16.33;;;;;;;;;;5062479;28;20060;-73
2023/12/15 02:47:40;;;;;;;15.70;14.75;;;;;;;;;;5062392;28;20553;-73
2023/12/15 02:50:12;;;;;;;12.43;11.65;;;;;;;;;;5063588;28;20494;-73
2023/12/15 02:52:42;;;;;;;13.52;12.52;;;;;;;;;;5063056;28;20517;-73
2023/12/15 02:55:13;;;;;;;13.65;12.85;;;;;;;;;;5063444;28;21163;-73
2023/12/15 02:57:43;;;;;;;14.32;13.10;;;;;;;;;;5063937;28;20067;-72
2023/12/15 03:00:17;;;;;;;18.38;17.27;;;;;;;;;;5063582;28;20048;-74
2023/12/15 03:02:47;;;;;;;14.15;13.25;;;;;;;;;;5063156;28;20414;-73
2023/12/15 03:05:17;;;;;;;18.92;17.90;;;;;;;;;;5064192;28;20115;-73
2023/12/15 03:07:57;;;;;;;19.80;18.60;;;;;;;;;;5063687;28;20041;-73
2023/12/15 03:10:28;;;;;;;16.80;15.90;;;;;;;;;;5063297;28;20047;-73
2023/12/15 03:12:58;;;;;;;17.77;16.73;;;;;;;;;;5062751;28;20036;-73
2023/12/15 03:15:28;;;;;;;25.23;23.38;;;;;;;;;;5063507;28;20045;-73
2023/12/15 03:17:59;;;;;;;25.17;23.25;;;;;;;;;;5061711;28;20052;-73
2023/12/15 03:20:30;;;;;;;18.70;17.15;;;;;;;;;;5063046;28;20053;-73
2023/12/15 03:23:01;;;;;;;18.85;17.00;;;;;;;;;;5063322;28;20048;-73
2023/12/15 03:25:32;;;;;;;18.48;16.80;;;;;;;;;;5063172;28;20518;-73
2023/12/15 03:28:02;;;;;;;21.05;19.83;;;;;;;;;;5063066;28;20055;-74
2023/12/15 03:30:33;;;;;;;19.50;18.30;;;;;;;;;;5061260;28;20059;-73
2023/12/15 03:33:03;;;;;;;19.25;18.08;;;;;;;;;;5062263;28;20059;-73
2023/12/15 03:35:33;;;;;;;20.45;19.13;;;;;;;;;;5063332;28;20055;-74
2023/12/15 03:38:08;;;;;;;26.33;23.92;;;;;;;;;;5063371;28;20067;-72
2023/12/15 03:40:39;;;;;;;15.93;14.77;;;;;;;;;;5063318;28;20044;-73
2023/12/15 03:43:10;;;;;;;23.95;22.55;;;;;;;;;;5063486;28;20048;-73
2023/12/15 03:45:39;;;;;;;26.77;25.27;;;;;;;;;;5062980;28;20052;-73
2023/12/15 03:48:12;;;;;;;18.20;17.10;;;;;;;;;;5062713;28;20487;-73
2023/12/15 03:50:45;;;;;;;21.17;19.65;;;;;;;;;;5062585;28;20440;-73
2023/12/15 03:53:15;;;;;;;23.35;21.90;;;;;;;;;;5062854;28;20055;-73
2023/12/15 03:55:45;;;;;;;23.42;22.15;;;;;;;;;;5062629;28;20048;-74
2023/12/15 03:58:15;;;;;;;21.73;20.40;;;;;;;;;;5062946;28;20044;-73
2023/12/15 04:00:47;;;;;;;29.67;27.92;;;;;;;;;;5062201;28;20435;-73
2023/12/15 04:03:17;;;;;;;33.33;31.48;;;;;;;;;;5062105;28;20060;-73
2023/12/15 04:05:47;;;;;;;22.02;20.50;;;;;;;;;;5062594;28;20051;-73
2023/12/15 04:08:18;;;;;;;27.05;25.45;;;;;;;;;;5062287;28;20048;-73
2023/12/15 04:10:50;;;;;;;23.08;21.50;;;;;;;;;;5062669;28;20099;-73
2023/12/15 04:13:21;;;;;;;26.08;24.52;;;;;;;;;;5062726;28;20049;-72
2023/12/15 04:15:52;;;;;;;27.30;25.75;;;;;;;;;;5062593;28;20048;-72
2023/12/15 04:18:25;;;;;;;29.40;27.70;;;;;;;;;;5063098;28;20059;-73
2023/12/15 04:20:56;;;;;;;28.50;26.73;;;;;;;;;;5061857;28;20063;-73
2023/12/15 04:23:27;;;;;;;24.55;22.90;;;;;;;;;;5062406;28;20055;-73
2023/12/15 04:25:58;;;;;;;36.75;34.40;;;;;;;;;;5060769;28;20087;-72
2023/12/15 04:28:28;;;;;;;21.58;20.20;;;;;;;;;;5061945;28;20067;-72
2023/12/15 04:30:58;;;;;;;29.85;27.85;;;;;;;;;;5059846;28;20059;-73
2023/12/15 04:33:30;;;;;;;24.90;23.50;;;;;;;;;;5059985;28;20525;-73
2023/12/15 04:36:01;;;;;;;30.65;28.58;;;;;;;;;;5062347;28;20044;-73
2023/12/15 04:38:30;;;;;;;34.65;32.20;;;;;;;;;;5061810;28;20052;-72
2023/12/15 04:41:01;;;;;;;27.60;25.90;;;;;;;;;;5062401;28;20048;-73
2023/12/15 04:43:32;;;;;;;25.38;23.92;;;;;;;;;;5062357;28;20067;-72
2023/12/15 04:46:02;;;;;;;25.45;23.90;;;;;;;;;;5062015;28;20045;-73
2023/12/15 04:48:32;;;;;;;26.50;24.73;;;;;;;;;;5062629;28;20740;-73
2023/12/15 04:51:02;;;;;;;33.65;31.30;;;;;;;;;;5061196;28;20049;-73
2023/12/15 04:53:32;;;;;;;29.58;27.77;;;;;;;;;;5061917;28;20051;-72
2023/12/15 04:56:03;;;;;;;27.80;26.20;;;;;;;;;;5061992;28;20048;-72
2023/12/15 04:58:33;;;;;;;22.90;21.33;;;;;;;;;;5062198;28;20056;-72
2023/12/15 05:01:04;;;;;;;30.80;29.00;;;;;;;;;;5062206;28;20064;-73
2023/12/15 05:03:34;;;;;;;35.15;33.13;;;;;;;;;;5061703;28;20045;-72
2023/12/15 05:06:05;;;;;;;29.25;27.48;;;;;;;;;;5061805;28;20041;-73
2023/12/15 05:08:36;;;;;;;28.75;27.15;;;;;;;;;;5061934;28;20486;-72
2023/12/15 05:11:07;;;;;;;21.13;19.77;;;;;;;;;;5061989;28;20507;-73
2023/12/15 05:13:38;;;;;;;26.83;24.95;;;;;;;;;;5059693;28;20052;-73
2023/12/15 05:16:08;;;;;;;23.50;21.95;;;;;;;;;;5061884;28;20049;-73
2023/12/15 05:18:39;;;;;;;22.73;20.92;;;;;;;;;;5061412;28;20071;-73
2023/12/15 05:21:10;;;;;;;23.10;21.63;;;;;;;;;;5061381;28;20053;-73
2023/12/15 05:23:40;;;;;;;27.73;26.10;;;;;;;;;;5061571;28;20048;-73
2023/12/15 05:26:14;;;;;;;28.90;27.27;;;;;;;;;;5061699;28;20044;-72
2023/12/15 05:28:46;;;;;;;25.85;24.35;;;;;;;;;;5061648;28;20418;-73
2023/12/15 05:31:17;;;;;;;34.85;32.85;;;;;;;;;;5061449;28;20052;-72
2023/12/15 05:33:47;;;;;;;34.53;32.35;;;;;;;;;;5062621;28;20037;-72
2023/12/15 05:36:21;;;;;;;31.30;29.42;;;;;;;;;;5062057;28;20067;-73
2023/12/15 05:38:53;;;;;;;30.80;28.85;;;;;;;;;;5065431;28;20051;-73
2023/12/15 05:41:23;;;;;;;35.53;33.45;;;;;;;;;;5065058;28;20049;-72
2023/12/15 05:43:54;;;;;;;29.15;27.25;;;;;;;;;;5064739;28;20052;-72
2023/12/15 05:46:24;;;;;;;36.08;33.70;;;;;;;;;;5064826;28;20052;-72
2023/12/15 05:48:54;;;;;;;25.40;23.92;;;;;;;;;;5065140;28;20422;-73
2023/12/15 05:51:25;;;;;;;21.50;20.23;;;;;;;;;;5065299;28;20044;-72
2023/12/15 05:53:55;;;;;;;22.23;20.48;;;;;;;;;;5064838;28;20531;-72
2023/12/15 05:56:27;;;;;;;23.88;22.27;;;;;;;;;;5064944;28;20049;-73
2023/12/15 05:58:57;;;;;;;30.42;28.55;;;;;;;;;;5063591;28;20529;-73
2023/12/15 06:01:29;;;;;;;26.50;24.77;;;;;;;;;;5064695;28;20060;-73
2023/12/15 06:03:59;;;;;;;37.75;35.53;;;;;;;;;;5064754;28;20045;-72
2023/12/15 06:06:28;;;;;;;32.35;30.55;;;;;;;;;;5065341;28;20045;-73
2023/12/15 06:08:59;;;;;;;36.38;34.13;;;;;;;;;;5065588;28;20518;-72
2023/12/15 06:11:30;;;;;;;38.78;36.67;;;;;;;;;;5064491;28;20044;-72
2023/12/15 06:14:01;;;;;;;35.35;33.35;;;;;;;;;;5062606;28;20056;-73
2023/12/15 06:16:31;;;;;;;38.17;35.92;;;;;;;;;;5064158;28;20051;-73
2023/12/15 06:19:01;;;;;;;34.30;32.42;;;;;;;;;;5064789;28;20056;-72
2023/12/15 06:21:32;;;;;;;26.95;25.15;;;;;;;;;;5064694;28;20052;-72
2023/12/15 06:24:02;;;;;;;25.45;23.90;;;;;;;;;;5064530;28;20048;-72
2023/12/15 06:26:33;;;;;;;29.75;28.10;;;;;;;;;;5065005;28;20048;-73
2023/12/15 06:29:03;;;;;;;24.77;23.35;;;;;;;;;;5062853;28;20052;-73
2023/12/15 06:31:33;;;;;;;32.20;30.27;;;;;;;;;;5061802;28;20060;-73
2023/12/15 06:34:03;;;;;;;39.92;37.42;;;;;;;;;;5045570;28;20061;-72
2023/12/15 06:36:34;;;;;;;29.58;27.83;;;;;;;;;;5064593;28;20415;-73
2023/12/15 06:39:05;;;;;;;31.15;29.05;;;;;;;;;;5064740;28;20056;-73
2023/12/15 06:41:34;;;;;;;29.80;28.17;;;;;;;;;;5064423;28;20407;-73
2023/12/15 06:44:06;;;;;;;33.15;31.25;;;;;;;;;;5064592;28;20052;-72
2023/12/15 06:46:39;;;;;;;28.30;26.63;;;;;;;;;;5063644;28;20044;-73
2023/12/15 06:49:09;;;;;;;33.90;31.85;;;;;;;;;;5064069;28;20049;-73
2023/12/15 06:51:43;;;;;;;34.00;31.98;;;;;;;;;;5063461;28;20040;-72
2023/12/15 06:54:13;;;;;;;30.63;28.73;;;;;;;;;;5063893;28;20418;-73
2023/12/15 06:56:43;;;;;;;27.35;25.83;;;;;;;;;;5063510;28;20878;-73
2023/12/15 06:59:13;;;;;;;34.80;32.70;;;;;;;;;;5063265;28;20067;-72
2023/12/15 07:01:44;;;;;;;28.08;26.25;;;;;;;;;;5063781;28;20053;-73
2023/12/15 07:04:14;;;;;;;21.23;19.92;;;;;;;;;;5064007;28;20051;-73
2023/12/15 07:06:45;;;;;;;28.88;26.88;;;;;;;;;;5063841;28;20522;-72
2023/12/15 07:09:15;;;;;;;28.88;26.92;;;;;;;;;;5063553;28;20507;-72
2023/12/15 07:11:48;;;;;;;31.80;29.75;;;;;;;;;;5062954;28;20040;-72
2023/12/15 07:14:18;;;;;;;25.80;24.25;;;;;;;;;;5064391;28;20040;-72
2023/12/15 07:16:49;;;;;;;21.13;19.70;;;;;;;;;;5063336;28;20072;-73
2023/12/15 07:19:20;;;;;;;21.77;20.58;;;;;;;;;;5063577;28;20052;-73
2023/12/15 07:21:51;;;;;;;35.72;33.58;;;;;;;;;;5063712;28;20067;-73
2023/12/15 07:24:21;;;;;;;31.80;29.83;;;;;;;;;;5063890;28;20055;-73
2023/12/15 07:26:51;;;;;;;29.50;27.42;;;;;;;;;;5063580;28;20612;-73
2023/12/15 07:29:22;;;;;;;26.42;23.98;;;;;;;;;;5063372;28;20052;-73
2023/12/15 07:31:54;;;;;;;27.35;25.58;;;;;;;;;;5063844;28;20071;-72
2023/12/15 07:34:24;;;;;;;30.30;28.23;;;;;;;;;;5060723;28;20053;-72
2023/12/15 07:36:54;;;;;;;35.17;33.08;;;;;;;;;;5063335;28;20491;-72
2023/12/15 07:39:25;;;;;;;29.95;27.95;;;;;;;;;;5062800;28;20057;-72
2023/12/15 07:41:56;;;;;;;35.75;33.67;;;;;;;;;;5062495;28;20048;-73
2023/12/15 07:44:27;;;;;;;35.38;33.20;;;;;;;;;;5062498;28;20063;-73
2023/12/15 07:46:57;;;;;;;31.95;30.13;;;;;;;;;;5062707;28;20059;-72
2023/12/15 07:49:28;;;;;;;38.42;36.22;;;;;;;;;;5063027;28;20479;-73
2023/12/15 07:51:59;;;;;;;38.00;35.50;;;;;;;;;;5062644;28;20653;-72
2023/12/15 07:54:30;;;;;;;38.40;36.17;;;;;;;;;;5063121;28;20055;-72
2023/12/15 07:57:00;;;;;;;36.33;33.75;;;;;;;;;;5061995;28;20060;-72
2023/12/15 07:59:30;;;;;;;30.38;28.58;;;;;;;;;;5062191;28;20059;-72
2023/12/15 08:02:00;;;;;;;29.73;27.90;;;;;;;;;;5062767;28;20049;-73
2023/12/15 08:04:32;;;;;;;32.42;30.40;;;;;;;;;;5063514;28;20495;-73
2023/12/15 08:07:02;;;;;;;28.35;26.75;;;;;;;;;;5062344;28;20060;-72
2023/12/15 08:09:32;;;;;;;23.70;22.40;;;;;;;;;;5060581;28;20052;-72
2023/12/15 08:12:03;;;;;;;28.55;26.52;;;;;;;;;;5061703;28;20060;-72
2023/12/15 08:14:34;;;;;;;23.20;21.88;;;;;;;;;;5062276;28;20044;-72
2023/12/15 08:17:05;;;;;;;27.83;26.13;;;;;;;;;;5062750;28;21005;-73
2023/12/15 08:19:35;;;;;;;24.70;23.30;;;;;;;;;;5062634;28;20052;-73
2023/12/15 08:22:06;;;;;;;30.85;29.02;;;;;;;;;;5061874;28;20540;-73
2023/12/15 08:24:37;;;;;;;32.28;30.27;;;;;;;;;;5062363;28;20048;-72
2023/12/15 08:27:07;;;;;;;27.58;25.92;;;;;;;;;;5062539;28;20044;-73
2023/12/15 08:29:37;;;;;;;41.38;39.03;;;;;;;;;;5062522;28;20044;-73
2023/12/15 08:32:08;;;;;;;30.80;28.92;;;;;;;;;;5062514;28;20521;-72
2023/12/15 08:34:42;;;;;;;38.75;36.47;;;;;;;;;;5060723;28;20051;-72
2023/12/15 08:37:13;;;;;;;32.90;30.85;;;;;;;;;;5062684;28;20041;-73
2023/12/15 08:39:44;;;;;;;41.70;39.08;;;;;;;;;;5062392;28;20525;-73
2023/12/15 08:42:13;;;;;;;27.35;25.35;;;;;;;;;;5060112;28;20052;-73
2023/12/15 08:44:45;;;;;;;30.95;28.98;;;;;;;;;;5061794;28;20521;-72
2023/12/15 08:47:15;;;;;;;22.83;21.30;;;;;;;;;;5061672;28;20071;-72
2023/12/15 08:49:45;;;;;;;30.55;28.85;;;;;;;;;;5061367;28;20044;-72
2023/12/15 08:52:15;;;;;;;25.58;24.17;;;;;;;;;;5062005;28;20044;-72
2023/12/15 08:54:46;;;;;;;28.83;27.20;;;;;;;;;;5061836;28;20059;-72
2023/12/15 08:57:17;;;;;;;29.63;28.00;;;;;;;;;;5061936;28;20408;-74
2023/12/15 08:59:48;;;;;;;32.45;30.35;;;;;;;;;;5060367;28;20066;-74
2023/12/15 09:02:18;;;;;;;27.77;25.92;;;;;;;;;;5062248;28;20053;-78
2023/12/15 09:04:49;;;;;;;38.28;36.10;;;;;;;;;;5061957;28;20045;-72
2023/12/15 09:07:32;;;;;;;24.30;22.90;;;;;;;;;;5061893;28;20040;-72
2023/12/15 09:10:02;;;;;;;30.65;28.85;;;;;;;;;;5062496;28;20052;-72
2023/12/15 09:12:32;;;;;;;23.60;22.15;;;;;;;;;;5064454;28;20075;-72
2023/12/15 09:15:03;;;;;;;38.80;36.63;;;;;;;;;;5064402;28;20428;-73
2023/12/15 09:17:34;;;;;;;28.10;26.35;;;;;;;;;;5065570;28;20056;-73
2023/12/15 09:20:07;;;;;;;33.67;31.67;;;;;;;;;;5065279;28;21107;-72
2023/12/15 09:22:40;;;;;;;30.17;28.38;;;;;;;;;;5065723;28;20071;-72
2023/12/15 09:25:10;;;;;;;25.80;24.08;;;;;;;;;;5065856;28;20052;-72
2023/12/15 09:27:43;;;;;;;38.95;36.55;;;;;;;;;;5063581;28;20902;-73
2023/12/15 09:30:17;;;;;;;30.17;28.48;;;;;;;;;;5064135;28;20044;-77
2023/12/15 09:32:48;;;;;;;26.27;24.80;;;;;;;;;;5064784;28;20056;-72
2023/12/15 09:35:18;;;;;;;26.02;24.33;;;;;;;;;;5065339;28;20036;-72
2023/12/15 09:37:48;;;;;;;30.73;29.05;;;;;;;;;;5065351;28;20045;-72
2023/12/15 09:40:23;;;;;;;20.88;19.40;;;;;;;;;;5064483;28;20053;-73
2023/12/15 09:42:54;;;;;;;20.55;19.35;;;;;;;;;;5065062;28;20059;-72
2023/12/15 09:45:24;;;;;;;21.85;19.95;;;;;;;;;;5064663;28;20049;-73
2023/12/15 09:47:57;;;;;;;19.23;18.02;;;;;;;;;;5064307;28;20045;-72
2023/12/15 09:50:31;;;;;;;22.08;20.60;;;;;;;;;;5064308;28;20042;-75
2023/12/15 09:53:03;;;;;;;23.27;21.52;;;;;;;;;;5062287;28;20052;-72
2023/12/15 09:55:35;;;;;;;24.02;21.63;;;;;;;;;;5064951;28;20047;-73
2023/12/15 09:58:05;;;;;;;32.03;29.42;;;;;;;;;;5064200;28;20044;-73
2023/12/15 10:00:40;;;;;;;29.70;27.02;;;;;;;;;;5064976;28;20075;-73
2023/12/15 10:03:10;;;;;;;27.00;24.85;;;;;;;;;;5062605;28;20056;-73
2023/12/15 10:05:41;;;;;;;25.90;23.60;;;;;;;;;;5060630;28;20059;-73
2023/12/15 10:08:11;;;;;;;29.90;27.73;;;;;;;;;;5062265;28;20040;-74
2023/12/15 10:10:41;;;;;;;33.05;30.80;;;;;;;;;;5064083;28;20044;-74
2023/12/15 10:13:12;;;;;;;25.48;23.50;;;;;;;;;;5064215;28;20048;-74
2023/12/15 10:15:44;;;;;;;29.40;27.60;;;;;;;;;;5063942;28;20052;-72
2023/12/15 10:18:14;;;;;;;27.25;25.02;;;;;;;;;;5063996;28;20059;-75
2023/12/15 10:20:48;;;;;;;16.98;15.82;;;;;;;;;;5063520;28;20049;-72
2023/12/15 10:23:29;;;;;;;23.35;21.15;;;;;;;;;;5063318;28;20048;-75
2023/12/15 10:26:01;;;;;;;19.10;16.80;;;;;;;;;;5063763;28;20048;-78
2023/12/15 10:28:39;;;;;;;19.98;18.33;;;;;;;;;;5064289;28;20063;-72
2023/12/15 10:31:09;;;;;;;24.75;22.77;;;;;;;;;;5065036;28;20048;-73
2023/12/15 10:33:41;;;;;;;34.53;32.42;;;;;;;;;;5063976;28;20059;-72
2023/12/15 10:36:14;;;;;;;21.15;19.70;;;;;;;;;;5062526;28;20510;-72
2023/12/15 10:38:44;;;;;;;18.95;17.50;;;;;;;;;;5062265;28;20048;-73
2023/12/15 10:41:15;;;;;;;17.35;15.75;;;;;;;;;;5063655;28;20056;-78
2023/12/15 10:43:50;;;;;;;16.83;15.30;;;;;;;;;;5063928;28;20051;-72
2023/12/15 10:46:21;;;;;;;11.55;10.38;;;;;;;;;;5064074;28;20048;-73
2023/12/15 10:48:54;;;;;;;10.93;10.32;;;;;;;;;;5063554;28;20052;-74
2023/12/15 10:51:26;;;;;;;12.40;11.65;;;;;;;;;;5063349;28;20051;-73
2023/12/15 10:53:58;;;;;;;12.68;11.10;;;;;;;;;;5063284;28;20051;-74
2023/12/15 10:56:29;;;;;;;11.70;10.68;;;;;;;;;;5062733;28;20052;-74
2023/12/15 10:59:00;;;;;;;13.32;11.38;;;;;;;;;;5064213;28;20048;-74
2023/12/15 11:01:33;;;;;;;10.00;9.15;;;;;;;;;;5062404;28;20052;-73
2023/12/15 11:04:20;;;;;;;10.38;9.52;;;;;;;;;;5060661;28;20048;-73
2023/12/15 11:06:51;;;;;;;10.95;10.00;;;;;;;;;;5062207;28;20426;-73
2023/12/15 11:09:33;;;;;;;14.45;13.45;;;;;;;;;;5062881;28;21145;-72
2023/12/15 11:12:38;;;;;;;10.45;9.80;;;;;;;;;;5063218;28;20055;-75
2023/12/15 11:15:10;;;;;;;8.20;7.40;;;;;;;;;;5063095;28;20048;-73
2023/12/15 11:17:49;;;;;;;11.93;11.05;;;;;;;;;;5062774;28;20055;-73
2023/12/15 11:20:26;;;;;;;7.63;6.90;;;;;;;;;;5062893;28;20049;-72
2023/12/15 11:22:56;;;;;;;7.70;7.13;;;;;;;;;;5062830;28;20071;-76
2023/12/15 11:25:30;;;;;;;8.75;7.90;;;;;;;;;;5062340;28;20053;-73
2023/12/15 11:28:10;;;;;;;4.95;4.57;;;;;;;;;;5062752;28;20134;-73
2023/12/15 11:30:48;;;;;;;7.32;6.65;;;;;;;;;;5063107;28;20059;-75
2023/12/15 11:33:27;;;;;;;9.48;6.20;;;;;;;;;;5062367;28;20044;-74
2023/12/15 11:36:01;;;;;;;10.98;10.00;;;;;;;;;;5062450;28;20495;-74
2023/12/15 11:38:33;;;;;;;10.10;9.23;;;;;;;;;;5062547;28;20048;-73
2023/12/15 11:41:04;;;;;;;9.38;6.75;;;;;;;;;;5062775;28;20053;-74
2023/12/15 11:43:38;;;;;;;7.75;6.97;;;;;;;;;;5062552;28;20044;-73
2023/12/15 11:46:10;;;;;;;9.90;7.68;;;;;;;;;;5062487;28;20415;-78
2023/12/15 11:48:44;;;;;;;7.70;6.05;;;;;;;;;;5062576;28;20658;-74
2023/12/15 11:51:15;;;;;;;11.60;10.23;;;;;;;;;;5062526;28;20040;-74
2023/12/15 11:53:49;;;;;;;7.80;6.93;;;;;;;;;;5062286;28;20055;-74
2023/12/15 11:56:20;;;;;;;10.68;8.30;;;;;;;;;;5062292;28;20518;-74
2023/12/15 11:58:51;;;;;;;7.68;7.07;;;;;;;;;;5062297;28;20065;-74
2023/12/15 12:01:22;;;;;;;6.75;6.18;;;;;;;;;;5062494;28;20059;-78
2023/12/15 12:03:52;;;;;;;23.77;10.45;;;;;;;;;;5062759;28;20051;-74
2023/12/15 12:06:22;;;;;;;11.07;7.45;;;;;;;;;;5062085;28;20044;-74
2023/12/15 12:08:53;;;;;;;8.43;6.38;;;;;;;;;;5062081;28;20051;-74
2023/12/15 12:11:23;;;;;;;7.05;6.45;;;;;;;;;;5060226;28;20044;-74
2023/12/15 12:14:00;;;;;;;9.02;8.43;;;;;;;;;;5060205;28;20051;-74
2023/12/15 12:16:34;;;;;;;10.75;7.25;;;;;;;;;;5061053;28;20059;-74
2023/12/15 12:19:04;;;;;;;7.03;6.53;;;;;;;;;;5062109;28;20040;-75
2023/12/15 12:21:37;;;;;;;6.95;6.38;;;;;;;;;;5061684;28;20052;-73
2023/12/15 12:24:08;;;;;;;6.22;5.57;;;;;;;;;;5061738;28;20044;-75
2023/12/15 12:26:38;;;;;;;9.10;8.25;;;;;;;;;;5062278;28;20055;-75
2023/12/15 12:29:09;;;;;;;7.80;4.97;;;;;;;;;;5062141;28;20855;-74
2023/12/15 12:31:40;;;;;;;12.25;6.70;;;;;;;;;;5061746;28;20049;-74
2023/12/15 12:34:11;;;;;;;7.18;5.43;;;;;;;;;;5061135;28;20048;-73
2023/12/15 12:36:42;;;;;;;5.97;5.22;;;;;;;;;;5061150;28;20609;-82
2023/12/15 12:39:12;;;;;;;5.88;5.43;;;;;;;;;;5061212;28;20044;-74
2023/12/15 12:41:43;;;;;;;6.43;4.70;;;;;;;;;;5061849;28;20049;-74
2023/12/15 12:44:14;;;;;;;6.45;6.03;;;;;;;;;;5061573;28;20056;-73
2023/12/15 12:46:45;;;;;;;5.78;5.38;;;;;;;;;;5061238;28;20053;-75
2023/12/15 12:49:15;;;;;;;6.75;6.15;;;;;;;;;;5060834;28;20517;-75
2023/12/15 12:51:46;;;;;;;6.15;5.65;;;;;;;;;;5061328;28;20052;-73
2023/12/15 12:54:16;;;;;;;7.60;5.10;;;;;;;;;;5061114;28;20510;-85
2023/12/15 12:56:47;;;;;;;6.60;6.00;;;;;;;;;;5062024;28;20423;-75
2023/12/15 12:59:28;;;;;;;11.02;5.40;;;;;;;;;;5061489;28;20048;-74
2023/12/15 13:01:58;;;;;;;7.38;5.57;;;;;;;;;;5061521;28;20048;-72
2023/12/15 13:04:46;;;;;;;5.97;5.43;;;;;;;;;;5061028;28;20052;-76
2023/12/15 13:07:16;;;;;;;6.50;5.85;;;;;;;;;;5061612;28;20052;-76
2023/12/15 13:09:47;;;;;;;5.80;5.32;;;;;;;;;;5059599;28;20049;-73
2023/12/15 13:12:17;;;;;;;6.30;4.82;;;;;;;;;;5061196;28;20052;-76
2023/12/15 13:14:49;;;;;;;5.55;5.05;;;;;;;;;;5060978;28;20069;-73
2023/12/15 13:17:18;;;;;;;10.20;6.38;;;;;;;;;;5061708;28;20056;-75
2023/12/15 13:19:48;;;;;;;7.75;7.05;;;;;;;;;;5061152;28;20045;-75
2023/12/15 13:22:20;;;;;;;8.07;7.43;;;;;;;;;;5060144;28;20529;-75
2023/12/15 13:24:55;;;;;;;11.95;7.22;;;;;;;;;;5061204;28;20048;-76
2023/12/15 13:27:28;;;;;;;8.75;8.13;;;;;;;;;;5061403;28;20057;-75
2023/12/15 13:29:59;;;;;;;8.73;7.85;;;;;;;;;;5061089;28;20060;-75
2023/12/15 13:32:29;;;;;;;10.82;8.68;;;;;;;;;;5061282;28;20683;-74
2023/12/15 13:35:00;;;;;;;18.42;10.88;;;;;;;;;;5060605;28;20060;-72
2023/12/15 13:37:31;;;;;;;13.43;10.02;;;;;;;;;;5061424;28;20048;-73
2023/12/15 13:40:01;;;;;;;10.10;8.95;;;;;;;;;;5059945;28;20075;-75
2023/12/15 13:42:32;;;;;;;13.05;8.05;;;;;;;;;;5061029;28;20059;-75
2023/12/15 13:45:02;;;;;;;10.13;7.68;;;;;;;;;;5060866;28;20048;-73
2023/12/15 13:47:33;;;;;;;8.85;6.80;;;;;;;;;;5061033;28;20055;-75
2023/12/15 13:50:05;;;;;;;7.47;6.88;;;;;;;;;;5060056;28;20056;-73
2023/12/15 13:52:36;;;;;;;12.80;6.82;;;;;;;;;;5060868;28;20048;-81
2023/12/15 13:55:07;;;;;;;8.43;7.72;;;;;;;;;;5062020;28;20044;-74
2023/12/15 13:57:37;;;;;;;9.70;7.35;;;;;;;;;;5059655;28;20075;-75
2023/12/15 14:00:09;;;;;;;9.90;8.68;;;;;;;;;;5064082;28;20068;-73
2023/12/15 14:02:41;;;;;;;8.75;8.02;;;;;;;;;;5064349;28;20041;-72
2023/12/15 14:05:11;;;;;;;12.35;11.50;;;;;;;;;;5064470;28;20051;-74
2023/12/15 14:07:41;;;;;;;12.20;11.30;;;;;;;;;;5063988;28;20048;-75
2023/12/15 14:10:12;;;;;;;10.15;9.38;;;;;;;;;;5063839;28;20048;-75
2023/12/15 14:12:46;;;;;;;9.68;7.95;;;;;;;;;;5064223;28;20056;-73
2023/12/15 14:15:17;;;;;;;7.43;6.72;;;;;;;;;;5063772;28;20503;-75
2023/12/15 14:17:48;;;;;;;11.20;6.53;;;;;;;;;;5065085;28;20614;-76
2023/12/15 14:20:19;;;;;;;11.85;10.95;;;;;;;;;;5064111;28;20056;-74
2023/12/15 14:22:49;;;;;;;11.10;10.20;;;;;;;;;;5063870;28;20048;-73
2023/12/15 14:25:24;;;;;;;14.48;12.20;;;;;;;;;;5063743;28;20510;-80
2023/12/15 14:27:55;;;;;;;10.77;9.75;;;;;;;;;;5063747;28;20529;-75
2023/12/15 14:30:25;;;;;;;9.65;8.73;;;;;;;;;;5064177;28;20045;-77
2023/12/15 14:32:57;;;;;;;10.45;9.55;;;;;;;;;;5063659;28;20048;-75
2023/12/15 14:35:28;;;;;;;11.00;8.80;;;;;;;;;;5063379;28;20384;-81
2023/12/15 14:37:58;;;;;;;10.18;9.32;;;;;;;;;;5063697;28;20114;-75
2023/12/15 14:40:29;;;;;;;9.30;8.60;;;;;;;;;;5062809;28;20410;-75
2023/12/15 14:42:59;;;;;;;13.65;6.97;;;;;;;;;;5063938;28;20044;-76
2023/12/15 14:45:30;;;;;;;11.23;7.65;;;;;;;;;;5064213;28;20063;-76
2023/12/15 14:48:01;;;;;;;9.23;8.02;;;;;;;;;;5063427;28;20040;-73
2023/12/15 14:50:50;;;;;;;8.57;6.90;;;;;;;;;;5063951;28;20048;-76
2023/12/15 14:53:22;;;;;;;10.60;9.43;;;;;;;;;;5064722;28;20055;-75
2023/12/15 14:55:53;;;;;;;10.35;9.45;;;;;;;;;;5061700;28;20752;-74
2023/12/15 14:58:23;;;;;;;10.95;10.15;;;;;;;;;;5063173;28;20491;-77